Time;durP1;ratioP1;P1;durP2;ratioP2;P2;SDS_P1;SDS_P2;PMS_P1;PMS_P2;Temp;Humidity;BMP_temperature;BMP_pressure;BME280_temperature;BME280_humidity;BME280_pressure;Samples;Min_cycle;Max_cycle;Signal;HPM_P1;HPM_P2
2022/04/15 00:03:07;;;;;;;7.10;5.67;;;11.10;99.90;;;;;;8283394;28;20258;-67
2022/04/15 00:07:10;;;;;;;6.73;5.23;;;11.00;99.90;;;;;;8285477;28;20218;-67
2022/04/15 00:11:11;;;;;;;6.77;5.47;;;10.90;99.90;;;;;;8282501;28;20229;-71
2022/04/15 00:15:12;;;;;;;7.90;4.97;;;10.90;99.90;;;;;;8282448;28;20265;-67
2022/04/15 00:19:13;;;;;;;7.00;5.37;;;10.90;99.90;;;;;;8282012;28;20366;-68
2022/04/15 00:23:14;;;;;;;7.17;5.43;;;10.80;99.90;;;;;;8281853;28;20211;-71
2022/04/15 00:27:15;;;;;;;7.00;5.53;;;10.80;99.90;;;;;;8283687;28;20269;-67
2022/04/15 00:31:16;;;;;;;6.77;5.47;;;10.70;99.90;;;;;;8286112;28;20252;-68
2022/04/15 00:35:17;;;;;;;5.97;5.37;;;10.70;99.90;;;;;;8284862;28;20246;-68
2022/04/15 00:39:18;;;;;;;5.93;5.33;;;10.60;99.90;;;;;;8283339;28;20253;-67
2022/04/15 00:43:18;;;;;;;7.70;5.53;;;10.50;99.90;;;;;;8281619;28;20210;-67
2022/04/15 00:47:46;;;;;;;7.50;6.50;;;10.40;99.90;;;;;;8281582;28;20210;-68
2022/04/15 00:51:49;;;;;;;8.37;6.80;;;10.40;99.90;;;;;;8286837;28;20264;-69
2022/04/15 00:55:53;;;;;;;8.17;6.30;;;10.30;99.90;;;;;;8282765;28;20264;-68
2022/04/15 00:59:56;;;;;;;11.33;9.10;;;10.30;99.90;;;;;;8281556;28;20211;-68
2022/04/15 01:03:58;;;;;;;13.37;9.70;;;10.40;99.90;;;;;;8297240;28;20207;-68
2022/04/15 01:08:02;;;;;;;12.30;9.97;;;10.30;99.90;;;;;;8281737;28;20226;-68
2022/04/15 01:12:05;;;;;;;15.20;10.27;;;10.30;99.90;;;;;;8283556;28;20290;-67
2022/04/15 01:16:08;;;;;;;15.17;11.40;;;10.30;99.90;;;;;;8279353;28;20557;-68
2022/04/15 01:20:11;;;;;;;17.40;12.43;;;10.30;99.90;;;;;;8281852;28;20249;-68
2022/04/15 01:24:12;;;;;;;16.93;11.87;;;10.30;99.90;;;;;;8292696;28;20199;-68
2022/04/15 01:28:16;;;;;;;17.00;12.03;;;10.30;99.90;;;;;;8282182;28;20211;-67
2022/04/15 01:32:17;;;;;;;17.57;12.67;;;10.30;99.90;;;;;;8280641;28;20265;-68
2022/04/15 01:36:18;;;;;;;15.17;11.50;;;10.30;99.90;;;;;;8275650;28;20203;-68
2022/04/15 01:40:19;;;;;;;15.63;11.13;;;10.20;99.90;;;;;;8281971;28;20228;-67
2022/04/15 01:44:20;;;;;;;13.43;10.47;;;10.10;99.90;;;;;;8277049;28;20206;-69
2022/04/15 01:48:21;;;;;;;15.90;10.77;;;10.00;99.90;;;;;;8280854;28;20214;-67
2022/04/15 01:52:21;;;;;;;15.97;11.20;;;10.00;99.90;;;;;;8281438;28;20500;-68
2022/04/15 01:56:22;;;;;;;18.07;12.63;;;10.10;99.90;;;;;;8280945;28;20229;-66
2022/04/15 02:00:23;;;;;;;21.07;14.03;;;10.10;99.90;;;;;;8277457;28;20249;-70
2022/04/15 02:04:25;;;;;;;19.63;14.10;;;10.20;99.90;;;;;;8276126;28;20207;-66
2022/04/15 02:08:26;;;;;;;23.53;16.43;;;10.30;99.90;;;;;;8280198;28;20251;-67
2022/04/15 02:12:27;;;;;;;22.67;16.40;;;10.40;99.90;;;;;;8283468;28;20298;-68
2022/04/15 02:16:28;;;;;;;26.30;17.07;;;10.40;99.90;;;;;;8278462;28;20207;-66
2022/04/15 02:20:28;;;;;;;21.57;16.63;;;10.40;99.90;;;;;;8276515;28;20230;-69
2022/04/15 02:24:29;;;;;;;22.97;16.27;;;10.40;99.90;;;;;;8281937;28;20214;-65
2022/04/15 02:28:30;;;;;;;19.77;14.60;;;10.40;99.90;;;;;;8280127;28;20254;-67
2022/04/15 02:32:31;;;;;;;18.33;14.93;;;10.40;99.90;;;;;;8270136;28;20207;-68
2022/04/15 02:36:32;;;;;;;19.43;14.17;;;10.30;99.90;;;;;;8285500;28;20211;-66
2022/04/15 02:40:33;;;;;;;21.03;14.40;;;10.20;99.90;;;;;;8278179;28;20218;-68
2022/04/15 02:44:36;;;;;;;21.87;14.67;;;10.00;99.90;;;;;;8278718;28;20219;-66
2022/04/15 02:48:37;;;;;;;22.50;15.53;;;10.00;99.90;;;;;;8284774;28;20265;-70
2022/04/15 02:52:37;;;;;;;23.97;17.23;;;10.00;99.90;;;;;;8287579;28;20221;-69
2022/04/15 02:56:38;;;;;;;22.10;17.13;;;10.10;99.90;;;;;;8284103;28;20242;-68
2022/04/15 03:00:39;;;;;;;23.00;16.13;;;10.10;99.90;;;;;;8286400;28;20215;-68
2022/04/15 03:04:40;;;;;;;23.53;17.57;;;10.10;99.90;;;;;;8283546;28;20242;-68
2022/04/15 03:08:41;;;;;;;20.87;16.33;;;10.10;99.90;;;;;;8298511;28;20223;-68
2022/04/15 03:12:41;;;;;;;23.67;17.33;;;10.10;99.90;;;;;;8283975;28;20242;-68
2022/04/15 03:16:43;;;;;;;25.83;18.07;;;10.10;99.90;;;;;;8299460;28;20207;-68
2022/04/15 03:20:44;;;;;;;26.37;18.83;;;10.10;99.90;;;;;;8286590;28;20230;-69
2022/04/15 03:24:45;;;;;;;26.33;18.57;;;10.20;99.90;;;;;;8285816;28;20217;-66
2022/04/15 03:28:46;;;;;;;21.67;17.30;;;10.20;99.90;;;;;;8284459;28;20502;-66
2022/04/15 03:32:48;;;;;;;23.23;16.10;;;10.20;99.90;;;;;;8283285;28;20230;-69
2022/04/15 03:36:49;;;;;;;28.30;18.97;;;10.20;99.90;;;;;;8284528;28;20199;-69
2022/04/15 03:40:50;;;;;;;26.23;18.13;;;10.30;99.90;;;;;;8286865;28;20226;-68
2022/04/15 03:44:50;;;;;;;26.90;19.17;;;10.30;99.90;;;;;;8283665;28;20269;-68
2022/04/15 03:48:51;;;;;;;26.40;18.93;;;10.30;99.90;;;;;;8283761;28;20233;-67
2022/04/15 03:52:53;;;;;;;21.23;16.40;;;10.30;99.90;;;;;;8283836;28;20234;-69
2022/04/15 03:56:54;;;;;;;20.70;16.03;;;10.30;99.90;;;;;;8282673;28;20211;-67
2022/04/15 04:00:55;;;;;;;20.67;16.40;;;10.30;99.90;;;;;;8280811;28;20207;-67
2022/04/15 04:04:56;;;;;;;20.13;15.07;;;10.30;99.90;;;;;;8283828;28;20216;-69
2022/04/15 04:08:57;;;;;;;20.57;14.97;;;10.30;99.90;;;;;;8288924;28;20229;-70
2022/04/15 04:12:58;;;;;;;21.40;15.07;;;10.30;99.90;;;;;;8280924;28;20214;-69
2022/04/15 04:16:59;;;;;;;23.93;17.10;;;10.30;99.90;;;;;;8283903;28;20439;-69
2022/04/15 04:21:00;;;;;;;22.53;17.93;;;10.30;99.90;;;;;;8283745;28;20208;-68
2022/04/15 04:25:00;;;;;;;24.43;16.70;;;10.40;99.90;;;;;;8284821;28;20203;-69
2022/04/15 04:29:01;;;;;;;26.20;17.87;;;10.40;99.90;;;;;;8282900;28;20220;-68
2022/04/15 04:33:02;;;;;;;21.83;16.93;;;10.50;99.90;;;;;;8282529;28;20208;-69
2022/04/15 04:37:03;;;;;;;23.40;17.97;;;10.60;99.90;;;;;;8279200;28;20203;-69
2022/04/15 04:41:04;;;;;;;24.43;17.67;;;10.60;99.90;;;;;;8278665;28;20222;-69
2022/04/15 04:45:06;;;;;;;21.67;16.67;;;10.60;99.90;;;;;;8296182;28;20246;-69
2022/04/15 04:49:07;;;;;;;23.87;17.43;;;10.60;99.90;;;;;;8282744;28;20254;-69
2022/04/15 04:53:08;;;;;;;27.23;19.67;;;10.60;99.90;;;;;;8282898;28;20213;-69
2022/04/15 04:57:09;;;;;;;25.53;18.73;;;10.60;99.90;;;;;;8280230;28;20211;-69
2022/04/15 05:01:09;;;;;;;20.87;16.93;;;10.60;99.90;;;;;;8281761;28;20206;-69
2022/04/15 05:05:11;;;;;;;25.57;17.40;;;10.60;99.90;;;;;;8283239;28;20213;-68
2022/04/15 05:09:12;;;;;;;25.40;19.07;;;10.70;99.90;;;;;;8282317;28;20224;-68
2022/04/15 05:13:13;;;;;;;31.23;20.17;;;10.90;99.90;;;;;;8280552;28;20206;-69
2022/04/15 05:17:13;;;;;;;29.33;20.87;;;10.90;99.90;;;;;;8279660;28;20611;-69
2022/04/15 05:21:14;;;;;;;26.30;19.97;;;11.00;99.90;;;;;;8281163;28;20243;-70
2022/04/15 05:25:15;;;;;;;30.60;21.17;;;10.90;99.90;;;;;;8268571;28;20206;-70
2022/04/15 05:29:16;;;;;;;29.40;20.83;;;10.90;99.90;;;;;;8240379;28;1425924;-69
2022/04/15 05:33:17;;;;;;;27.33;20.23;;;11.00;99.90;;;;;;8280654;28;20626;-69
2022/04/15 05:37:17;;;;;;;28.17;21.00;;;11.10;99.90;;;;;;8285183;28;20187;-69
2022/04/15 05:41:18;;;;;;;26.77;21.57;;;11.10;99.90;;;;;;8285902;28;20294;-70
2022/04/15 05:45:19;;;;;;;24.43;19.33;;;11.20;99.90;;;;;;8281869;28;20187;-69
2022/04/15 05:49:20;;;;;;;28.60;21.30;;;11.40;99.90;;;;;;8284235;28;20259;-70
2022/04/15 05:53:21;;;;;;;29.93;20.90;;;11.60;99.90;;;;;;8287321;28;20221;-69
2022/04/15 05:57:23;;;;;;;25.20;19.73;;;11.80;99.90;;;;;;8278737;28;20545;-70
2022/04/15 06:01:23;;;;;;;26.00;19.63;;;12.00;99.90;;;;;;8287355;28;20200;-69
2022/04/15 06:05:24;;;;;;;22.13;17.50;;;12.40;99.90;;;;;;8284984;28;20191;-70
2022/04/15 06:09:25;;;;;;;22.90;17.97;;;12.70;99.90;;;;;;8282543;28;20352;-69
2022/04/15 06:13:26;;;;;;;24.67;18.20;;;12.70;99.90;;;;;;8291091;28;20194;-70
2022/04/15 06:17:27;;;;;;;24.10;18.97;;;12.80;99.90;;;;;;8292494;28;20190;-68
2022/04/15 06:21:28;;;;;;;25.83;19.60;;;12.60;99.90;;;;;;8297473;28;20194;-70
2022/04/15 06:25:29;;;;;;;24.03;18.70;;;12.40;99.90;;;;;;8286566;28;20189;-71
2022/04/15 06:29:29;;;;;;;24.27;19.03;;;12.40;99.90;;;;;;8293990;28;20210;-69
2022/04/15 06:33:30;;;;;;;25.27;19.73;;;12.20;99.90;;;;;;8296533;28;20186;-68
2022/04/15 06:37:31;;;;;;;26.27;18.70;;;12.10;99.90;;;;;;8289686;28;20187;-69
2022/04/15 06:41:34;;;;;;;29.30;20.03;;;12.20;99.90;;;;;;8290407;28;20209;-69
2022/04/15 06:45:34;;;;;;;24.87;19.00;;;12.20;99.90;;;;;;8286918;28;20187;-70
2022/04/15 06:49:35;;;;;;;24.27;18.03;;;12.20;99.90;;;;;;8285029;28;20221;-70
2022/04/15 06:53:36;;;;;;;25.27;20.43;;;12.10;99.90;;;;;;8282407;28;20194;-69
2022/04/15 06:57:37;;;;;;;23.90;18.03;;;12.10;99.90;;;;;;8288453;28;20366;-70
2022/04/15 07:01:38;;;;;;;26.10;18.73;;;12.10;99.90;;;;;;8290580;28;20217;-69
2022/04/15 07:05:43;;;;;;;25.77;19.97;;;11.90;99.90;;;;;;8288132;28;20191;-69
2022/04/15 07:09:44;;;;;;;26.27;20.17;;;11.80;99.90;;;;;;8281306;28;20265;-71
2022/04/15 07:13:45;;;;;;;26.80;20.67;;;11.60;99.90;;;;;;8288022;28;20182;-72
2022/04/15 07:17:46;;;;;;;25.17;19.10;;;11.50;99.90;;;;;;8290333;28;20284;-70
2022/04/15 07:21:47;;;;;;;27.40;20.50;;;11.50;99.90;;;;;;8291258;28;20289;-71
2022/04/15 07:25:48;;;;;;;33.90;22.07;;;11.30;99.90;;;;;;8283850;28;20231;-72
2022/04/15 07:29:48;;;;;;;32.40;23.37;;;11.20;99.90;;;;;;8283364;28;20215;-72
2022/04/15 07:33:50;;;;;;;32.43;21.03;;;11.00;99.90;;;;;;8281137;28;20190;-72
2022/04/15 07:37:51;;;;;;;37.17;22.50;;;10.90;99.90;;;;;;8283659;28;20176;-69
2022/04/15 07:41:52;;;;;;;32.70;23.30;;;10.80;99.90;;;;;;8288908;28;20183;-70
2022/04/15 07:45:53;;;;;;;36.60;24.67;;;10.70;99.90;;;;;;8293696;28;20186;-72
2022/04/15 07:49:53;;;;;;;38.40;25.30;;;10.60;99.90;;;;;;8287656;28;20208;-68
2022/04/15 07:53:54;;;;;;;38.63;25.83;;;10.50;99.90;;;;;;8292279;28;20199;-70
2022/04/15 07:57:55;;;;;;;38.33;23.90;;;10.50;99.90;;;;;;8295217;28;20215;-70
2022/04/15 08:01:58;;;;;;;34.23;21.70;;;10.50;99.90;;;;;;8289412;28;20194;-68
2022/04/15 08:05:59;;;;;;;32.07;21.33;;;10.40;99.90;;;;;;8287974;28;20183;-68
2022/04/15 08:10:00;;;;;;;32.27;22.47;;;10.30;99.90;;;;;;8287547;28;20207;-69
2022/04/15 08:14:01;;;;;;;37.37;22.80;;;10.20;99.90;;;;;;8288407;28;20223;-67
2022/04/15 08:18:02;;;;;;;41.33;25.47;;;10.00;99.90;;;;;;8292619;28;20240;-66
2022/04/15 08:22:03;;;;;;;42.70;26.63;;;9.80;99.90;;;;;;8295756;28;20217;-71
2022/04/15 08:26:04;;;;;;;45.43;28.87;;;9.50;99.90;;;;;;8289636;28;20183;-70
2022/04/15 08:30:06;;;;;;;46.77;27.73;;;9.20;99.90;;;;;;8290858;28;20213;-71
2022/04/15 08:34:06;;;;;;;44.60;26.60;;;9.10;99.90;;;;;;8287661;28;20195;-69
2022/04/15 08:38:08;;;;;;;36.77;23.67;;;9.20;99.90;;;;;;8288300;28;20211;-70
2022/04/15 08:42:09;;;;;;;22.53;16.33;;;9.40;99.90;;;;;;8284988;28;20278;-71
2022/04/15 08:46:12;;;;;;;24.43;16.43;;;9.50;99.90;;;;;;8282423;28;20199;-69
2022/04/15 08:50:14;;;;;;;23.57;16.10;;;9.50;99.90;;;;;;8291251;28;20402;-67
2022/04/15 08:54:16;;;;;;;23.63;16.10;;;9.80;99.90;;;;;;8285324;28;20179;-72
2022/04/15 08:58:16;;;;;;;17.77;12.53;;;10.20;99.90;;;;;;8286119;28;20327;-69
2022/04/15 09:02:37;;;;;;;13.80;9.37;;;10.30;99.90;;;;;;8301975;28;20301;-69
2022/04/15 09:06:41;;;;;;;14.63;9.10;;;10.30;99.90;;;;;;8284802;28;20191;-68
2022/04/15 09:10:42;;;;;;;12.50;9.00;;;10.60;99.90;;;;;;8283133;28;20221;-70
2022/04/15 09:14:45;;;;;;;11.73;8.60;;;10.60;99.90;;;;;;8269093;28;20226;-71
2022/04/15 09:18:46;;;;;;;11.03;7.90;;;10.60;99.90;;;;;;8294545;28;20283;-70
2022/04/15 09:22:52;;;;;;;10.20;7.40;;;10.60;99.90;;;;;;8286300;28;20203;-71
2022/04/15 09:26:53;;;;;;;12.27;8.33;;;10.40;99.90;;;;;;8307772;28;20789;-69
2022/04/15 09:30:54;;;;;;;11.87;7.60;;;10.10;99.90;;;;;;8285143;28;20238;-69
2022/04/15 09:34:56;;;;;;;9.67;7.63;;;10.00;99.90;;;;;;8282366;28;20216;-71
2022/04/15 09:39:04;;;;;;;9.17;6.37;;;10.00;99.90;;;;;;8281731;28;20218;-68
2022/04/15 09:43:06;;;;;;;9.97;7.13;;;10.00;99.90;;;;;;8288851;28;20187;-70
2022/04/15 09:47:07;;;;;;;6.87;5.40;;;10.00;99.90;;;;;;8294964;28;20190;-69
2022/04/15 09:51:19;;;;;;;5.87;4.37;;;10.20;99.90;;;;;;8294240;28;20264;-70
2022/04/15 09:55:21;;;;;;;9.13;6.43;;;10.10;99.90;;;;;;8290819;28;20183;-70
2022/04/15 09:59:24;;;;;;;4.77;4.30;;;10.10;99.90;;;;;;8287139;28;20194;-70
2022/04/15 10:03:27;;;;;;;5.77;4.73;;;10.30;1.00;;;;;;8286425;28;20200;-70
2022/04/15 10:07:29;;;;;;;5.30;4.80;;;10.60;1.00;;;;;;8286894;28;20191;-70
2022/04/15 10:11:32;;;;;;;7.77;6.07;;;10.60;99.90;;;;;;8285533;28;20214;-71
2022/04/15 10:15:36;;;;;;;7.50;5.33;;;10.50;57.10;;;;;;8297623;28;20218;-70
2022/04/15 10:19:38;;;;;;;4.90;4.40;;;10.20;99.90;;;;;;8284048;28;20187;-69
2022/04/15 10:23:38;;;;;;;7.03;5.47;;;9.90;99.90;;;;;;8300766;28;20306;-70
2022/04/15 10:27:39;;;;;;;5.53;4.17;;;9.80;1.00;;;;;;8283376;28;20206;-67
2022/04/15 10:31:45;;;;;;;10.07;6.23;;;9.70;1.00;;;;;;8288124;28;20215;-70
2022/04/15 10:35:46;;;;;;;5.63;4.47;;;9.80;99.90;;;;;;8281673;28;20179;-71
2022/04/15 10:39:48;;;;;;;5.37;4.70;;;9.80;99.90;;;;;;8283151;28;20218;-69
2022/04/15 10:43:57;;;;;;;5.57;4.97;;;9.60;1.00;;;;;;8286748;28;20210;-70
2022/04/15 10:47:59;;;;;;;5.53;4.97;;;9.50;99.90;;;;;;8284062;28;20191;-70
2022/04/15 10:52:03;;;;;;;6.50;5.07;;;9.50;99.90;;;;;;8276663;28;20184;-68
2022/04/15 10:56:09;;;;;;;6.03;5.30;;;9.50;99.90;;;;;;8283881;28;20180;-67
2022/04/15 11:04:37;;;;;;;5.80;5.23;;;9.60;1.00;;;;;;8289197;28;20211;-69
2022/04/15 11:08:47;;;;;;;6.27;5.20;;;9.50;1.00;;;;;;8284735;28;20203;-69
2022/04/15 11:12:48;;;;;;;6.40;5.37;;;9.40;99.90;;;;;;8285827;28;20270;-70
2022/04/15 11:16:53;;;;;;;7.27;6.10;;;9.30;99.90;;;;;;8290770;28;20202;-71
2022/04/15 11:20:54;;;;;;;7.80;6.50;;;9.30;1.00;;;;;;8281343;28;20191;-70
2022/04/15 11:24:56;;;;;;;6.23;4.60;;;9.30;1.00;;;;;;8288315;28;20282;-71
2022/04/15 11:28:59;;;;;;;5.67;4.70;;;9.40;1.00;;;;;;8291837;28;20210;-71
2022/04/15 11:33:07;;;;;;;5.33;4.03;;;9.30;99.90;;;;;;8295447;28;20279;-70
2022/04/15 11:37:09;;;;;;;4.30;3.57;;;9.30;1.00;;;;;;8285026;28;20187;-71
2022/04/15 11:41:10;;;;;;;7.10;4.03;;;9.30;99.90;;;;;;8292094;28;20258;-68
2022/04/15 11:45:13;;;;;;;5.10;3.97;;;9.40;99.90;;;;;;8293766;28;20195;-70
2022/04/15 11:49:31;;;;;;;4.73;4.17;;;9.40;70.90;;;;;;8286443;28;20309;-70
2022/04/15 11:53:34;;;;;;;5.37;4.47;;;9.50;99.90;;;;;;8290949;28;20229;-70
2022/04/15 11:57:36;;;;;;;5.80;4.30;;;9.50;1.00;;;;;;8286556;28;20183;-71
2022/04/15 12:01:38;;;;;;;4.83;4.17;;;9.60;99.90;;;;;;8284364;28;20238;-70
2022/04/15 12:05:39;;;;;;;7.23;4.43;;;9.70;99.90;;;;;;8297774;28;20275;-71
2022/04/15 12:09:43;;;;;;;5.97;4.00;;;9.80;99.90;;;;;;8285730;28;20234;-70
2022/04/15 12:13:44;;;;;;;5.43;4.43;;;10.00;19.00;;;;;;8295733;28;20302;-71
2022/04/15 12:17:46;;;;;;;6.40;4.60;;;10.40;99.90;;;;;;8296758;28;20475;-70
2022/04/15 12:21:48;;;;;;;6.13;4.03;;;10.80;99.90;;;;;;8293246;28;20286;-68
2022/04/15 12:26:06;;;;;;;5.57;3.07;;;10.90;23.10;;;;;;8285681;28;20195;-71
2022/04/15 12:30:07;;;;;;;4.77;3.37;;;11.10;1.00;;;;;;8293831;28;20405;-70
2022/04/15 12:34:08;;;;;;;3.57;3.23;;;10.90;1.00;;;;;;8284489;28;20180;-69
2022/04/15 12:38:09;;;;;;;3.30;2.87;;;10.30;15.70;;;;;;8286037;28;20238;-70
2022/04/15 12:42:29;;;;;;;4.13;2.40;;;10.00;99.90;;;;;;8292850;28;20265;-72
2022/04/15 12:46:30;;;;;;;3.30;2.57;;;10.10;1.00;;;;;;8289876;28;20195;-69
2022/04/15 12:50:36;;;;;;;3.20;2.90;;;10.20;1.00;;;;;;8294130;28;20283;-70
2022/04/15 12:54:56;;;;;;;3.10;2.80;;;10.10;55.20;;;;;;8286349;28;20184;-71
2022/04/15 12:58:57;;;;;;;2.83;2.57;;;10.00;99.90;;;;;;8287976;28;20186;-71
2022/04/15 13:02:58;;;;;;;6.37;2.97;;;10.00;99.90;;;;;;8291199;28;20361;-71
2022/04/15 13:06:59;;;;;;;3.60;2.87;;;9.90;47.30;;;;;;8282044;28;20190;-71
2022/04/15 13:11:00;;;;;;;3.40;3.10;;;9.80;99.90;;;;;;8280401;28;20207;-71
2022/04/15 13:15:02;;;;;;;4.87;4.27;;;9.70;99.90;;;;;;8283358;28;20178;-71
2022/04/15 13:19:04;;;;;;;5.10;4.57;;;9.50;1.00;;;;;;8282677;28;20214;-71
2022/04/15 13:23:05;;;;;;;4.50;4.10;;;9.40;99.90;;;;;;8281422;28;20183;-70
2022/04/15 13:27:06;;;;;;;4.90;4.23;;;9.40;1.00;;;;;;8276228;28;20201;-70
2022/04/15 13:31:11;;;;;;;4.67;4.10;;;9.40;99.90;;;;;;8288105;28;20203;-71
2022/04/15 13:35:11;;;;;;;5.93;4.43;;;9.40;1.00;;;;;;8290384;28;20276;-69
2022/04/15 13:39:13;;;;;;;6.13;4.77;;;9.40;99.90;;;;;;8292979;28;20210;-70
2022/04/15 13:43:13;;;;;;;6.47;4.90;;;9.30;1.00;;;;;;8303390;28;20216;-70
2022/04/15 13:47:14;;;;;;;7.53;4.10;;;9.20;99.90;;;;;;8303836;28;20194;-70
2022/04/15 13:51:15;;;;;;;4.80;4.23;;;9.30;99.90;;;;;;8277888;28;20618;-70
2022/04/15 13:59:36;;;;;;;4.73;3.93;;;9.20;99.90;;;;;;8273650;28;20206;-70
2022/04/15 14:03:36;;;;;;;4.67;3.57;;;9.30;99.90;;;;;;8278867;28;20183;-69
2022/04/15 14:07:37;;;;;;;6.13;3.80;;;9.60;1.00;;;;;;8283360;28;20408;-71
2022/04/15 14:11:41;;;;;;;7.57;4.40;;;10.00;99.90;;;;;;8283097;28;20218;-70
2022/04/15 14:15:42;;;;;;;4.33;3.93;;;10.20;99.90;;;;;;8282597;28;20191;-67
2022/04/15 14:19:43;;;;;;;4.33;3.87;;;10.00;99.90;;;;;;8282949;28;20546;-70
2022/04/15 14:23:44;;;;;;;5.33;4.60;;;9.40;99.90;;;;;;8284724;28;20194;-71
2022/04/15 14:27:46;;;;;;;6.00;3.90;;;8.80;99.90;;;;;;8285965;28;20199;-69
2022/04/15 14:31:47;;;;;;;6.27;3.70;;;8.40;99.90;;;;;;8285464;28;20242;-68
2022/04/15 14:35:48;;;;;;;5.20;3.73;;;8.20;99.90;;;;;;8295214;28;20191;-71
2022/04/15 14:39:49;;;;;;;8.50;5.33;;;8.20;99.90;;;;;;8295790;28;20293;-70
2022/04/15 14:43:49;;;;;;;15.30;9.30;;;8.30;99.90;;;;;;8283696;28;20187;-70
2022/04/15 14:47:50;;;;;;;7.43;5.30;;;8.20;99.90;;;;;;8290611;28;20194;-69
2022/04/15 14:51:51;;;;;;;6.13;5.07;;;8.30;99.90;;;;;;8290233;28;20313;-71
2022/04/15 14:55:52;;;;;;;4.90;4.27;;;8.30;99.90;;;;;;8285689;28;20186;-70
2022/04/15 14:59:53;;;;;;;6.10;4.93;;;8.30;99.90;;;;;;8286685;28;20198;-71
2022/04/15 15:03:54;;;;;;;5.33;4.30;;;8.40;99.90;;;;;;8290528;28;20195;-68
2022/04/15 15:07:54;;;;;;;4.50;3.50;;;8.50;99.90;;;;;;8295986;28;20197;-71
2022/04/15 15:11:56;;;;;;;5.27;3.87;;;8.50;99.90;;;;;;8301472;28;20210;-71
2022/04/15 15:15:57;;;;;;;5.40;3.80;;;8.50;99.90;;;;;;8294943;28;20195;-70
2022/04/15 15:19:58;;;;;;;3.20;2.90;;;8.60;99.90;;;;;;8300416;28;20271;-71
2022/04/15 15:32:38;;;;;;;6.93;5.20;;;8.70;99.90;;;;;;8288628;28;20310;-70
2022/04/15 15:36:39;;;;;;;4.20;3.40;;;8.70;99.90;;;;;;8298264;28;20195;-70
2022/04/15 15:40:45;;;;;;;3.80;3.20;;;8.60;99.90;;;;;;8289407;28;20269;-69
2022/04/15 15:44:46;;;;;;;4.40;3.97;;;8.50;99.90;;;;;;8285822;28;20191;-70
2022/04/15 15:48:47;;;;;;;6.03;4.67;;;8.50;99.90;;;;;;8286527;28;20246;-71
2022/04/15 15:52:48;;;;;;;4.43;3.53;;;8.40;99.90;;;;;;8300004;28;20214;-69
2022/04/15 15:56:49;;;;;;;5.70;3.90;;;8.40;99.90;;;;;;8289656;28;20498;-71
2022/04/15 16:00:50;;;;;;;7.17;4.23;;;8.40;99.90;;;;;;8285748;28;20187;-71
2022/04/15 16:04:51;;;;;;;6.10;4.53;;;8.40;99.90;;;;;;8275875;28;20183;-69
2022/04/15 16:08:51;;;;;;;5.97;3.93;;;8.30;99.90;;;;;;8294066;28;20256;-71
2022/04/15 16:12:53;;;;;;;6.23;3.77;;;8.30;99.90;;;;;;8294124;28;20179;-71
2022/04/15 16:16:53;;;;;;;4.97;3.73;;;8.30;99.90;;;;;;8287584;28;20313;-71
2022/04/15 16:20:54;;;;;;;6.07;4.70;;;8.30;99.90;;;;;;8288491;28;20183;-69
2022/04/15 16:24:55;;;;;;;5.80;3.80;;;8.30;99.90;;;;;;8281697;28;20183;-66
2022/04/15 16:28:56;;;;;;;5.37;4.27;;;8.40;99.90;;;;;;8292796;28;20218;-68
2022/04/15 16:32:57;;;;;;;4.73;4.10;;;8.40;99.90;;;;;;8286820;28;20183;-64
2022/04/15 16:36:58;;;;;;;6.10;4.23;;;8.50;99.90;;;;;;8287611;28;20183;-67
2022/04/15 16:41:05;;;;;;;4.90;4.40;;;8.50;99.90;;;;;;8298944;28;20194;-66
2022/04/15 16:45:07;;;;;;;7.17;4.73;;;8.40;99.90;;;;;;8295006;28;20263;-65
2022/04/15 16:49:08;;;;;;;8.20;5.73;;;8.40;99.90;;;;;;8285454;28;20331;-68
2022/04/15 16:53:09;;;;;;;5.37;4.33;;;8.30;99.90;;;;;;8284657;28;20195;-66
2022/04/15 17:01:29;;;;;;;8.07;5.53;;;8.20;99.90;;;;;;8285771;28;20206;-67
2022/04/15 17:05:31;;;;;;;5.50;4.77;;;8.20;99.90;;;;;;8287865;28;20190;-66
2022/04/15 17:09:32;;;;;;;8.17;6.17;;;8.20;99.90;;;;;;8282796;28;20472;-65
2022/04/15 17:13:35;;;;;;;6.77;4.97;;;8.20;99.90;;;;;;8282636;28;20609;-67
2022/04/15 17:17:36;;;;;;;9.73;7.47;;;8.20;99.90;;;;;;8288891;28;20195;-66
2022/04/15 17:21:37;;;;;;;11.50;7.53;;;8.10;99.90;;;;;;8293237;28;20201;-67
2022/04/15 17:25:39;;;;;;;8.73;6.40;;;8.10;99.90;;;;;;8282997;28;20306;-66
2022/04/15 17:29:40;;;;;;;9.60;6.57;;;8.10;99.90;;;;;;8287259;28;20238;-66
2022/04/15 17:33:41;;;;;;;8.00;6.60;;;8.00;99.90;;;;;;8282089;28;20270;-66
2022/04/15 17:37:42;;;;;;;10.17;7.20;;;8.00;99.90;;;;;;8282852;28;20191;-67
2022/04/15 17:41:44;;;;;;;9.00;7.17;;;8.00;99.90;;;;;;8290594;28;20197;-66
2022/04/15 17:45:45;;;;;;;9.13;7.53;;;8.00;99.90;;;;;;8281798;28;20191;-66
2022/04/15 17:49:46;;;;;;;10.80;7.93;;;8.00;99.90;;;;;;8282377;28;20207;-65
2022/04/15 17:53:47;;;;;;;9.80;7.53;;;8.00;99.90;;;;;;8285413;28;20221;-72
2022/04/15 17:57:48;;;;;;;10.13;7.90;;;8.00;99.90;;;;;;8290604;28;20187;-66
2022/04/15 18:01:50;;;;;;;13.53;9.13;;;7.90;99.90;;;;;;8298470;28;20554;-66
2022/04/15 18:05:51;;;;;;;12.20;8.80;;;7.90;99.90;;;;;;8283144;28;20285;-66
2022/04/15 18:09:52;;;;;;;11.13;9.10;;;8.00;99.90;;;;;;8284093;28;20219;-68
2022/04/15 18:13:52;;;;;;;11.97;8.07;;;7.90;99.90;;;;;;8289143;28;20250;-70
2022/04/15 18:17:53;;;;;;;12.27;9.57;;;7.90;99.90;;;;;;8277782;28;20195;-66
2022/04/15 18:21:54;;;;;;;10.00;7.80;;;8.00;99.90;;;;;;8290138;28;20198;-69
2022/04/15 18:25:55;;;;;;;12.70;8.60;;;8.00;99.90;;;;;;8288631;28;20183;-67
2022/04/15 18:29:56;;;;;;;10.67;8.00;;;8.00;99.90;;;;;;8284902;28;20215;-66
2022/04/15 18:33:58;;;;;;;10.73;8.67;;;8.00;99.90;;;;;;8278912;28;20179;-68
2022/04/15 18:38:04;;;;;;;10.00;8.70;;;7.90;99.90;;;;;;8277744;28;20191;-70
2022/04/15 18:42:05;;;;;;;10.83;8.93;;;7.90;99.90;;;;;;8283651;28;20190;-67
2022/04/15 18:46:06;;;;;;;13.17;9.80;;;7.90;99.90;;;;;;8281912;28;20278;-66
2022/04/15 18:54:26;;;;;;;9.83;7.13;;;7.90;99.90;;;;;;8284207;28;20230;-68
2022/04/15 18:58:30;;;;;;;8.27;7.03;;;7.70;99.90;;;;;;8283566;28;20187;-64
2022/04/15 19:02:55;;;;;;;12.40;7.50;;;7.40;99.90;;;;;;8287013;28;20275;-67
2022/04/15 19:06:55;;;;;;;8.47;6.97;;;7.30;99.90;;;;;;8279045;28;20237;-64
2022/04/15 19:10:59;;;;;;;7.73;6.20;;;7.20;99.90;;;;;;8280883;28;20182;-63
2022/04/15 19:15:02;;;;;;;8.63;6.57;;;7.00;99.90;;;;;;8277352;28;20198;-66
2022/04/15 19:19:03;;;;;;;8.50;6.53;;;6.90;99.90;;;;;;8279114;28;20298;-60
2022/04/15 19:23:04;;;;;;;8.50;6.60;;;6.80;99.90;;;;;;8294615;28;20187;-64
2022/04/15 19:27:06;;;;;;;7.63;6.37;;;6.70;99.90;;;;;;8297418;28;20205;-63
2022/04/15 19:31:07;;;;;;;8.37;5.83;;;6.70;99.90;;;;;;8294569;28;20191;-64
2022/04/15 19:35:08;;;;;;;7.37;6.53;;;6.70;99.90;;;;;;8290186;28;20195;-63
2022/04/15 19:39:12;;;;;;;9.93;7.13;;;6.60;99.90;;;;;;8286008;28;20362;-64
2022/04/15 19:43:12;;;;;;;7.23;6.43;;;6.60;99.90;;;;;;8288411;28;20187;-63
2022/04/15 19:47:13;;;;;;;9.60;6.53;;;6.60;99.90;;;;;;8296912;28;20194;-70
2022/04/15 19:51:14;;;;;;;7.17;6.23;;;6.50;99.90;;;;;;8289952;28;20193;-64
2022/04/15 19:55:16;;;;;;;6.53;5.83;;;6.40;99.90;;;;;;8280665;28;20629;-66
2022/04/15 20:03:38;;;;;;;7.80;6.23;;;6.40;99.90;;;;;;8287506;28;20194;-66
2022/04/15 20:07:39;;;;;;;7.83;6.30;;;6.40;99.90;;;;;;8281535;28;21142;-64
2022/04/15 20:11:40;;;;;;;7.07;5.93;;;6.40;99.90;;;;;;8287207;28;20520;-63
2022/04/15 20:15:41;;;;;;;7.30;5.37;;;6.30;99.90;;;;;;8290172;28;20191;-65
2022/04/15 20:19:42;;;;;;;7.60;6.60;;;6.30;99.90;;;;;;8285386;28;20207;-62
2022/04/15 20:23:47;;;;;;;7.43;5.87;;;6.30;99.90;;;;;;8287930;28;20187;-63
2022/04/15 20:27:50;;;;;;;9.27;6.07;;;6.30;99.90;;;;;;8284472;28;20192;-63
2022/04/15 20:31:51;;;;;;;8.13;6.60;;;6.30;99.90;;;;;;8289884;28;20187;-64
2022/04/15 20:35:52;;;;;;;8.83;5.90;;;6.20;99.90;;;;;;8276076;28;20192;-65
2022/04/15 20:39:55;;;;;;;8.57;6.93;;;6.20;99.90;;;;;;8280274;28;20219;-64
2022/04/15 20:43:55;;;;;;;8.10;6.47;;;6.20;99.90;;;;;;8276012;28;20184;-67
2022/04/15 20:47:57;;;;;;;8.53;6.70;;;6.20;99.90;;;;;;8288427;28;20187;-64
2022/04/15 20:51:58;;;;;;;9.67;6.60;;;6.20;99.90;;;;;;8293473;28;20441;-65
2022/04/15 20:55:59;;;;;;;10.97;7.67;;;6.20;99.90;;;;;;8288472;28;20186;-66
2022/04/15 21:00:00;;;;;;;11.63;7.87;;;6.10;99.90;;;;;;8287021;28;20205;-67
2022/04/15 21:04:01;;;;;;;12.37;8.67;;;6.10;99.90;;;;;;8286390;28;20183;-66
2022/04/15 21:08:05;;;;;;;15.87;9.07;;;6.10;99.90;;;;;;8284689;28;20217;-64
2022/04/15 21:12:07;;;;;;;13.73;9.63;;;6.10;99.90;;;;;;8298626;28;20270;-67
2022/04/15 21:16:08;;;;;;;18.10;10.83;;;6.10;99.90;;;;;;8290910;28;20182;-66
2022/04/15 21:20:09;;;;;;;14.50;9.10;;;6.10;99.90;;;;;;8282466;28;20504;-65
2022/04/15 21:24:10;;;;;;;14.67;9.50;;;6.00;99.90;;;;;;8286360;28;20198;-67